createdAt,value
2022-08-17T00:01:46.455Z,51.25
2022-08-17T00:04:19.426Z,52.13
2022-08-17T00:06:49.180Z,51.03
2022-08-17T00:09:18.972Z,55.38
2022-08-17T00:12:35.115Z,52.13
2022-08-17T00:14:35.973Z,53.35
2022-08-17T00:17:04.516Z,53.77
2022-08-17T00:19:34.755Z,52.50
2022-08-17T00:22:33.672Z,48.13
2022-08-17T00:24:49.709Z,45.38
2022-08-17T00:27:16.142Z,45.65
2022-08-17T00:29:42.545Z,44.77
2022-08-17T00:33:15.411Z,45.85
2022-08-17T00:34:55.335Z,47.03
2022-08-17T00:37:21.756Z,39.85
2022-08-17T00:39:48.202Z,41.70
2022-08-17T00:42:16.376Z,33.70
2022-08-17T00:44:42.835Z,33.95
2022-08-17T00:47:09.316Z,41.50
2022-08-17T00:49:35.708Z,38.33
2022-08-17T00:52:12.033Z,37.90
2022-08-17T00:54:42.378Z,38.80
2022-08-17T00:57:14.837Z,43.85
2022-08-17T00:59:47.111Z,42.47
2022-08-17T01:02:31.030Z,44.78
2022-08-17T01:05:07.884Z,47.95
2022-08-17T01:07:34.661Z,47.43
2022-08-17T01:10:58.881Z,50.33
2022-08-17T01:12:56.693Z,50.08
2022-08-17T01:15:23.351Z,43.10
2022-08-17T01:17:50.082Z,41.72
2022-08-17T01:20:16.889Z,39.93
2022-08-17T01:22:43.388Z,41.67
2022-08-17T01:25:11.440Z,42.15
2022-08-17T01:27:38.843Z,45.20
2022-08-17T01:30:56.628Z,47.90
2022-08-17T01:32:56.541Z,48.70
2022-08-17T01:35:22.956Z,42.90
2022-08-17T01:37:49.653Z,46.17
2022-08-17T01:40:28.360Z,48.80
2022-08-17T01:43:00.712Z,48.25
2022-08-17T01:45:33.650Z,45.70
2022-08-17T01:48:00.888Z,47.63
2022-08-17T01:50:31.913Z,49.72
2022-08-17T01:53:02.752Z,48.05
2022-08-17T01:55:38.178Z,49.53
2022-08-17T01:58:09.568Z,47.27
2022-08-17T02:01:00.043Z,46.08
2022-08-17T02:03:27.227Z,47.85
2022-08-17T02:05:53.762Z,46.40
2022-08-17T02:08:37.220Z,49.47
2022-08-17T02:11:11.678Z,47.10
2022-08-17T02:13:39.151Z,44.15
2022-08-17T02:16:05.717Z,42.50
2022-08-17T02:18:32.271Z,47.83
2022-08-17T02:20:59.364Z,49.95
2022-08-17T02:23:29.322Z,46.20
2022-08-17T02:25:58.148Z,50.65
2022-08-17T02:28:24.912Z,46.53
2022-08-17T02:31:00.970Z,44.83
2022-08-17T02:33:42.082Z,43.40
2022-08-17T02:36:11.440Z,48.47
2022-08-17T02:38:38.543Z,45.55
2022-08-17T02:41:05.099Z,49.10
2022-08-17T02:43:31.850Z,45.22
2022-08-17T02:45:58.266Z,45.67
2022-08-17T02:48:28.029Z,53.53
2022-08-17T02:50:57.974Z,47.17
2022-08-17T02:53:24.425Z,44.55
2022-08-17T02:55:52.746Z,48.65
2022-08-17T02:58:34.806Z,51.28
2022-08-17T03:01:04.639Z,46.50
2022-08-17T03:03:31.122Z,47.80
2022-08-17T03:05:57.848Z,50.38
2022-08-17T03:08:25.454Z,49.03
2022-08-17T03:10:51.984Z,51.92
2022-08-17T03:13:18.428Z,59.30
2022-08-17T03:15:46.294Z,56.30
2022-08-17T03:18:24.209Z,57.35
2022-08-17T03:20:57.231Z,56.28
2022-08-17T03:23:25.466Z,50.00
2022-08-17T03:25:53.936Z,49.20
2022-08-17T03:28:21.729Z,50.20
2022-08-17T03:30:48.280Z,51.53
2022-08-17T03:33:14.814Z,46.92
2022-08-17T03:35:41.825Z,44.95
2022-08-17T03:38:10.939Z,46.73
2022-08-17T03:40:56.673Z,54.35
2022-08-17T03:43:25.543Z,50.63
2022-08-17T03:46:28.310Z,52.97
2022-08-17T03:49:15.650Z,47.65
2022-08-17T03:52:00.461Z,50.30
2022-08-17T03:54:45.317Z,50.60
2022-08-17T03:57:12.395Z,52.72
2022-08-17T03:59:41.047Z,56.90
2022-08-17T04:02:19.620Z,49.85
2022-08-17T04:04:46.848Z,46.67
2022-08-17T04:07:13.342Z,49.40
2022-08-17T04:09:39.776Z,49.22
2022-08-17T04:12:06.360Z,58.60
2022-08-17T04:14:39.260Z,50.38
2022-08-17T04:17:21.623Z,54.57
2022-08-17T04:19:48.024Z,54.95
2022-08-17T04:22:30.846Z,53.42
2022-08-17T04:25:01.296Z,49.63
2022-08-17T04:27:27.692Z,51.33
2022-08-17T04:29:54.803Z,54.93
2022-08-17T04:32:58.576Z,56.92
2022-08-17T04:35:09.757Z,61.35
2022-08-17T04:37:36.175Z,54.45
2022-08-17T04:40:22.125Z,56.22
2022-08-17T04:43:05.068Z,51.20
2022-08-17T04:45:32.282Z,58.42
2022-08-17T04:48:00.427Z,57.03
2022-08-17T04:50:27.153Z,59.42
2022-08-17T04:52:53.692Z,60.72
2022-08-17T04:55:20.287Z,55.43
2022-08-17T04:57:46.709Z,57.88
2022-08-17T05:00:13.634Z,63.72
2022-08-17T05:02:51.002Z,60.70
2022-08-17T05:05:20.756Z,68.35
2022-08-17T05:07:47.979Z,63.53
2022-08-17T05:10:14.401Z,71.57
2022-08-17T05:12:40.801Z,62.17
2022-08-17T05:15:14.216Z,60.33
2022-08-17T05:17:40.634Z,59.28
2022-08-17T05:20:07.542Z,57.33
2022-08-17T05:22:33.968Z,61.65
2022-08-17T05:25:01.941Z,62.47
2022-08-17T05:27:29.818Z,67.72
2022-08-17T05:30:02.293Z,67.32
2022-08-17T05:32:37.339Z,66.03
2022-08-17T05:35:07.274Z,59.83
2022-08-17T05:37:33.672Z,64.18
2022-08-17T05:40:00.227Z,62.60
2022-08-17T05:42:26.788Z,65.57
2022-08-17T05:44:56.528Z,59.93
2022-08-17T05:47:25.147Z,63.28
2022-08-17T05:49:53.725Z,63.15
2022-08-17T05:52:29.274Z,61.65
2022-08-17T05:55:20.625Z,58.58
2022-08-17T05:58:10.964Z,59.03
2022-08-17T06:00:54.100Z,64.40
2022-08-17T06:03:53.264Z,65.18
2022-08-17T06:06:33.623Z,68.40
2022-08-17T06:09:32.990Z,57.88
2022-08-17T06:12:07.217Z,57.33
2022-08-17T06:15:07.848Z,65.43
2022-08-17T06:17:34.557Z,59.22
2022-08-17T06:20:08.122Z,62.13
2022-08-17T06:22:40.865Z,62.15
2022-08-17T06:25:38.493Z,68.40
2022-08-17T06:28:13.859Z,71.57
2022-08-17T06:30:59.561Z,65.38
2022-08-17T06:33:37.734Z,63.35
2022-08-17T06:36:28.020Z,62.88
2022-08-17T06:39:12.769Z,64.77
2022-08-17T06:42:05.607Z,62.95
2022-08-17T06:45:10.383Z,73.85
2022-08-17T06:47:58.055Z,73.88
2022-08-17T06:50:44.356Z,70.53
2022-08-17T06:53:38.220Z,76.43
2022-08-17T06:56:13.975Z,66.78
2022-08-17T06:58:43.270Z,61.58
2022-08-17T07:01:15.210Z,65.43
2022-08-17T07:03:49.758Z,76.78
2022-08-17T07:06:21.009Z,73.77
2022-08-17T07:08:55.500Z,74.15
2022-08-17T07:11:36.165Z,65.57
2022-08-17T07:14:27.348Z,61.15
2022-08-17T07:16:56.844Z,65.85
2022-08-17T07:19:26.716Z,62.17
2022-08-17T07:22:05.058Z,76.68
2022-08-17T07:24:57.119Z,73.90
2022-08-17T07:27:37.094Z,70.13
2022-08-17T07:30:11.063Z,67.50
2022-08-17T07:32:51.440Z,59.73
2022-08-17T07:35:20.998Z,54.60
2022-08-17T07:38:07.111Z,55.83
2022-08-17T07:41:02.068Z,55.75
2022-08-17T07:43:40.757Z,57.72
2022-08-17T07:46:50.328Z,52.17
2022-08-17T07:49:24.041Z,56.88
2022-08-17T07:51:50.440Z,52.97
2022-08-17T07:54:22.423Z,53.92
2022-08-17T07:57:08.539Z,53.80
2022-08-17T07:59:40.726Z,48.47
2022-08-17T08:02:33.662Z,46.95
2022-08-17T08:05:06.639Z,44.92
2022-08-17T08:07:54.920Z,50.40
2022-08-17T08:10:35.515Z,47.53
2022-08-17T08:13:22.933Z,44.57
2022-08-17T08:15:54.047Z,43.40
2022-08-17T08:18:54.605Z,37.17
2022-08-17T08:21:22.012Z,41.75
2022-08-17T08:24:00.507Z,37.60
2022-08-17T08:26:49.315Z,38.50
2022-08-17T08:29:41.189Z,35.97
2022-08-17T08:32:32.113Z,31.75
2022-08-17T08:35:22.631Z,31.83
2022-08-17T08:38:10.091Z,30.88
2022-08-17T08:40:43.244Z,33.07
2022-08-17T08:43:29.684Z,32.03
2022-08-17T08:46:13.019Z,31.77
2022-08-17T08:49:10.033Z,34.50
2022-08-17T08:51:46.429Z,31.70
2022-08-17T08:54:34.973Z,35.47
2022-08-17T08:57:26.830Z,32.65
2022-08-17T08:59:59.548Z,32.10
2022-08-17T09:02:53.452Z,31.00
2022-08-17T09:05:37.749Z,29.58
2022-08-17T09:08:17.392Z,31.50
2022-08-17T09:11:07.660Z,33.40
2022-08-17T09:13:43.719Z,34.55
2022-08-17T09:16:19.563Z,35.03
2022-08-17T09:19:01.609Z,33.30
2022-08-17T09:21:44.602Z,36.43
2022-08-17T09:24:27.710Z,38.40
2022-08-17T09:27:21.661Z,36.30
2022-08-17T09:29:51.608Z,39.08
2022-08-17T09:32:21.678Z,34.20
2022-08-17T09:34:53.514Z,34.43
2022-08-17T09:37:33.632Z,36.80
2022-08-17T09:40:15.695Z,40.53
2022-08-17T09:42:49.747Z,40.08
2022-08-17T09:45:29.944Z,37.63
2022-08-17T09:48:12.220Z,36.43
2022-08-17T09:51:05.138Z,39.67
2022-08-17T09:53:32.484Z,40.30
2022-08-17T09:56:24.114Z,40.05
2022-08-17T09:59:09.792Z,41.40
2022-08-17T10:01:56.818Z,43.47
2022-08-17T10:04:44.330Z,45.42
2022-08-17T10:07:31.917Z,45.90
2022-08-17T10:10:41.836Z,43.03
2022-08-17T10:13:35.362Z,39.17
2022-08-17T10:16:12.867Z,39.63
2022-08-17T10:18:50.080Z,41.92
2022-08-17T10:21:36.063Z,42.97
2022-08-17T10:24:36.383Z,45.92
2022-08-17T10:27:11.010Z,47.65
2022-08-17T10:29:57.039Z,45.53
2022-08-17T10:32:32.802Z,45.58
2022-08-17T10:35:26.695Z,46.13
2022-08-17T10:38:24.367Z,46.40
2022-08-17T10:40:57.726Z,45.45
2022-08-17T10:43:44.656Z,44.60
2022-08-17T10:46:43.209Z,48.75
2022-08-17T10:49:17.620Z,47.35
2022-08-17T10:51:53.437Z,47.78
2022-08-17T10:54:34.090Z,54.50
2022-08-17T10:57:00.684Z,49.23
2022-08-17T10:59:36.012Z,51.67
2022-08-17T11:02:23.119Z,49.63
2022-08-17T11:04:57.591Z,49.38
2022-08-17T11:07:45.580Z,55.40
2022-08-17T11:10:30.965Z,52.23
2022-08-17T11:13:21.717Z,53.88
2022-08-17T11:16:08.383Z,55.10
2022-08-17T11:19:09.894Z,58.70
2022-08-17T11:21:58.245Z,58.90
2022-08-17T11:24:47.795Z,54.40
2022-08-17T11:27:28.633Z,54.42
2022-08-17T11:30:59.856Z,54.47
2022-08-17T11:33:29.311Z,55.90
2022-08-17T11:36:31.538Z,56.42
2022-08-17T11:39:28.612Z,59.43
2022-08-17T11:42:05.519Z,56.40
2022-08-17T11:45:00.601Z,55.83
2022-08-17T11:48:23.733Z,58.70
2022-08-17T11:51:09.747Z,58.97
2022-08-17T11:53:37.103Z,54.60
2022-08-17T11:56:09.500Z,57.10
2022-08-17T11:58:40.798Z,55.40
2022-08-17T12:01:13.506Z,53.50
2022-08-17T12:03:42.402Z,50.83
2022-08-17T12:06:34.246Z,53.20
2022-08-17T12:09:10.462Z,53.92
2022-08-17T12:12:11.400Z,50.53
2022-08-17T12:15:08.428Z,47.28
2022-08-17T12:17:40.194Z,50.15
2022-08-17T12:20:14.989Z,48.30
2022-08-17T12:22:47.708Z,44.40
2022-08-17T12:25:22.261Z,42.92
2022-08-17T12:28:06.291Z,41.63
2022-08-17T12:30:35.064Z,40.30
2022-08-17T12:33:01.573Z,40.53
2022-08-17T12:35:38.810Z,42.25
2022-08-17T12:38:31.806Z,38.33
2022-08-17T12:40:58.329Z,38.38
2022-08-17T12:43:27.819Z,37.47
2022-08-17T12:46:01.111Z,35.97
2022-08-17T12:48:39.788Z,36.30
2022-08-17T12:51:25.891Z,37.35
2022-08-17T12:53:54.892Z,34.78
2022-08-17T12:56:21.509Z,35.67
2022-08-17T12:58:55.540Z,34.33
2022-08-17T13:01:24.995Z,31.42
2022-08-17T13:03:54.635Z,35.05
2022-08-17T13:06:33.503Z,34.35
2022-08-17T13:09:12.640Z,35.75
2022-08-17T13:11:50.952Z,35.17
2022-08-17T13:14:20.290Z,35.85
2022-08-17T13:16:59.405Z,33.55
2022-08-17T13:19:39.945Z,35.03
2022-08-17T13:22:12.655Z,39.38
2022-08-17T13:24:53.002Z,35.63
2022-08-17T13:27:21.419Z,36.17
2022-08-17T13:29:53.647Z,36.83
2022-08-17T13:32:45.741Z,37.55
2022-08-17T13:35:32.831Z,33.47
2022-08-17T13:38:13.195Z,37.23
2022-08-17T13:40:43.236Z,36.97
2022-08-17T13:43:10.816Z,35.22
2022-08-17T13:45:44.178Z,38.55
2022-08-17T13:48:28.568Z,35.13
2022-08-17T13:50:54.911Z,35.83
2022-08-17T13:53:25.824Z,33.60
2022-08-17T13:56:00.776Z,31.13
2022-08-17T13:58:32.909Z,33.47
2022-08-17T14:01:29.925Z,33.63
2022-08-17T14:03:57.515Z,32.13
2022-08-17T14:06:52.447Z,29.05
2022-08-17T14:09:13.525Z,33.28
2022-08-17T14:11:40.754Z,30.00
2022-08-17T14:14:07.361Z,31.27
2022-08-17T14:16:33.799Z,31.83
2022-08-17T14:19:00.197Z,31.42
2022-08-17T14:21:29.124Z,31.58
2022-08-17T14:23:55.530Z,30.30
2022-08-17T14:26:22.014Z,30.70
2022-08-17T14:28:56.517Z,32.80
2022-08-17T14:31:23.594Z,31.73
2022-08-17T14:33:50.151Z,33.05
2022-08-17T14:36:16.560Z,33.08
2022-08-17T14:38:44.080Z,33.83
2022-08-17T14:41:11.252Z,34.90
2022-08-17T14:43:37.936Z,35.88
2022-08-17T14:46:05.356Z,37.25
2022-08-17T14:48:38.374Z,31.92
2022-08-17T14:51:05.334Z,34.55
2022-08-17T14:53:31.956Z,31.87
2022-08-17T14:55:58.760Z,31.63
2022-08-17T14:58:25.961Z,31.05
2022-08-17T15:00:52.684Z,33.25
2022-08-17T15:03:19.407Z,31.00
2022-08-17T15:05:46.741Z,30.97
2022-08-17T15:08:13.175Z,30.73
2022-08-17T15:10:39.716Z,28.42
2022-08-17T15:13:18.015Z,31.15
2022-08-17T15:15:44.560Z,28.63
2022-08-17T15:18:11.041Z,38.70
2022-08-17T15:20:37.527Z,35.80
2022-08-17T15:23:03.950Z,46.40
2022-08-17T15:25:32.535Z,19.73
2022-08-17T15:28:00.085Z,9.30
2022-08-17T15:30:27.145Z,10.80
2022-08-17T15:32:55.445Z,12.70
2022-08-17T15:35:27.369Z,10.00
2022-08-17T15:37:54.279Z,9.77
2022-08-17T15:40:21.985Z,11.45
2022-08-17T15:42:48.956Z,14.17
2022-08-17T15:45:16.887Z,21.38
2022-08-17T15:47:43.321Z,14.77
2022-08-17T15:50:10.348Z,9.23
2022-08-17T15:52:40.116Z,10.55
2022-08-17T15:55:10.813Z,10.47
2022-08-17T15:57:37.417Z,8.20
2022-08-17T16:00:06.060Z,8.48
2022-08-17T16:03:15.060Z,8.82
2022-08-17T16:05:24.798Z,7.30
2022-08-17T16:07:52.490Z,7.23
2022-08-17T16:10:19.615Z,8.07
2022-08-17T16:12:47.591Z,8.75
2022-08-17T16:15:14.913Z,9.40
2022-08-17T16:17:42.187Z,7.75
2022-08-17T16:20:20.195Z,7.50
2022-08-17T16:22:49.599Z,7.93
2022-08-17T16:25:21.313Z,13.38
2022-08-17T16:27:53.389Z,8.05
2022-08-17T16:30:22.707Z,8.93
2022-08-17T16:32:51.612Z,7.70
2022-08-17T16:35:21.981Z,9.88
2022-08-17T16:37:48.993Z,9.57
2022-08-17T16:40:16.886Z,9.90
2022-08-17T16:42:47.952Z,12.43
2022-08-17T16:45:18.360Z,9.23
2022-08-17T16:47:45.052Z,9.13
2022-08-17T16:50:13.837Z,7.25
2022-08-17T16:52:40.887Z,9.75
2022-08-17T16:55:10.600Z,7.70
2022-08-17T16:57:47.284Z,8.40
2022-08-17T17:00:17.763Z,8.98
2022-08-17T17:02:47.216Z,10.23
2022-08-17T17:05:22.250Z,11.65
2022-08-17T17:07:53.349Z,13.98
2022-08-17T17:10:23.871Z,17.13
2022-08-17T17:13:01.274Z,16.38
2022-08-17T17:15:41.010Z,20.38
2022-08-17T17:18:11.480Z,19.10
2022-08-17T17:20:47.648Z,20.42
2022-08-17T17:23:32.539Z,22.27
2022-08-17T17:26:21.643Z,21.45
2022-08-17T17:29:03.733Z,15.55
2022-08-17T17:31:39.337Z,17.15
2022-08-17T17:34:10.178Z,17.70
2022-08-17T17:36:46.071Z,20.80
2022-08-17T17:39:31.852Z,19.65
2022-08-17T17:42:07.483Z,20.38
2022-08-17T17:44:40.353Z,29.33
2022-08-17T17:47:07.516Z,23.50
2022-08-17T17:49:38.011Z,20.50
2022-08-17T17:52:19.096Z,19.83
2022-08-17T17:54:55.204Z,20.38
2022-08-17T17:57:45.014Z,16.77
2022-08-17T18:00:20.620Z,12.35
2022-08-17T18:02:53.305Z,11.37
2022-08-17T18:05:40.562Z,9.95
2022-08-17T18:08:32.273Z,10.00
2022-08-17T18:11:27.259Z,7.95
2022-08-17T18:14:42.190Z,7.65
2022-08-17T18:17:08.908Z,7.37
2022-08-17T18:19:39.908Z,7.88
2022-08-17T18:22:14.410Z,8.30
2022-08-17T18:24:44.533Z,8.00
2022-08-17T18:27:34.450Z,8.35
2022-08-17T18:30:24.854Z,9.13
2022-08-17T18:32:51.279Z,7.75
2022-08-17T18:35:22.181Z,8.82
2022-08-17T18:38:11.531Z,9.70
2022-08-17T18:40:38.447Z,9.35
2022-08-17T18:43:06.813Z,10.17
2022-08-17T18:45:48.494Z,12.82
2022-08-17T18:48:24.047Z,11.45
2022-08-17T18:50:53.573Z,12.10
2022-08-17T18:53:26.823Z,12.48
2022-08-17T18:56:30.697Z,14.87
2022-08-17T18:59:18.388Z,15.05
2022-08-17T19:02:27.375Z,16.90
2022-08-17T19:05:26.469Z,17.25
2022-08-17T19:07:53.388Z,16.42
2022-08-17T19:10:28.148Z,18.47
2022-08-17T19:13:14.928Z,16.52
2022-08-17T19:16:12.216Z,16.67
2022-08-17T19:19:14.626Z,17.15
2022-08-17T19:21:53.013Z,15.95
2022-08-17T19:24:25.303Z,18.13
2022-08-17T19:27:00.405Z,17.77
2022-08-17T19:29:46.720Z,19.95
2022-08-17T19:32:19.884Z,18.70
2022-08-17T19:34:46.393Z,18.35
2022-08-17T19:38:01.179Z,23.67
2022-08-17T19:40:53.198Z,19.48
2022-08-17T19:43:26.007Z,23.63
2022-08-17T19:46:14.364Z,21.52
2022-08-17T19:48:46.716Z,19.05
2022-08-17T19:51:19.108Z,19.10
2022-08-17T19:54:08.729Z,19.13
2022-08-17T19:56:47.401Z,20.55
2022-08-17T19:59:22.649Z,24.60
2022-08-17T20:01:52.352Z,21.23
2022-08-17T20:04:41.472Z,20.90
2022-08-17T20:07:16.893Z,21.77
2022-08-17T20:09:54.037Z,19.92
2022-08-17T20:12:26.517Z,23.90
2022-08-17T20:15:04.633Z,20.90
2022-08-17T20:17:37.059Z,22.57
2022-08-17T20:20:24.827Z,21.38
2022-08-17T20:23:06.704Z,23.13
2022-08-17T20:25:36.224Z,22.08
2022-08-17T20:28:25.773Z,18.63
2022-08-17T20:30:54.783Z,21.47
2022-08-17T20:33:29.286Z,19.05
2022-08-17T20:36:17.647Z,19.25
2022-08-17T20:38:53.107Z,18.70
2022-08-17T20:41:22.783Z,21.70
2022-08-17T20:43:55.087Z,18.87
2022-08-17T20:46:26.768Z,24.17
2022-08-17T20:48:56.842Z,20.00
2022-08-17T20:51:32.397Z,18.90
2022-08-17T20:54:06.578Z,20.70
2022-08-17T20:56:46.384Z,20.23
2022-08-17T20:59:25.549Z,21.30
2022-08-17T21:02:17.742Z,19.45
2022-08-17T21:04:52.647Z,21.67
2022-08-17T21:07:46.961Z,22.35
2022-08-17T21:10:25.416Z,17.97
2022-08-17T21:13:00.125Z,19.08
2022-08-17T21:15:39.390Z,20.70
2022-08-17T21:18:23.311Z,16.40
2022-08-17T21:21:17.438Z,14.75
2022-08-17T21:24:02.777Z,17.63
2022-08-17T21:26:50.652Z,16.60
2022-08-17T21:29:31.376Z,15.45
2022-08-17T21:31:59.342Z,17.52
2022-08-17T21:34:42.510Z,15.07
2022-08-17T21:37:26.027Z,13.90
2022-08-17T21:40:19.486Z,16.10
2022-08-17T21:42:53.717Z,15.63
2022-08-17T21:45:30.873Z,15.70
2022-08-17T21:48:24.192Z,18.55
2022-08-17T21:50:59.238Z,17.97
2022-08-17T21:53:33.662Z,15.43
2022-08-17T21:56:00.785Z,19.08
2022-08-17T21:58:31.098Z,15.55
2022-08-17T22:01:13.348Z,17.95
2022-08-17T22:03:47.610Z,18.90
2022-08-17T22:06:36.886Z,15.55
2022-08-17T22:09:09.252Z,19.27
2022-08-17T22:11:54.592Z,18.98
2022-08-17T22:14:52.868Z,15.18
2022-08-17T22:17:35.574Z,15.07
2022-08-17T22:20:12.012Z,13.85
2022-08-17T22:23:19.691Z,16.35
2022-08-17T22:26:02.366Z,16.08
2022-08-17T22:28:45.624Z,12.93
2022-08-17T22:31:15.786Z,16.57
2022-08-17T22:33:44.375Z,11.30
2022-08-17T22:36:29.211Z,13.82
2022-08-17T22:38:58.979Z,13.73
2022-08-17T22:41:53.211Z,14.77
2022-08-17T22:44:28.000Z,15.07
2022-08-17T22:47:11.097Z,13.65
2022-08-17T22:50:01.934Z,15.68
2022-08-17T22:52:32.171Z,15.40
2022-08-17T22:55:33.388Z,13.85
2022-08-17T22:58:19.264Z,20.10
2022-08-17T23:00:48.149Z,14.27
2022-08-17T23:03:22.127Z,17.55
2022-08-17T23:06:03.817Z,15.88
2022-08-17T23:08:31.750Z,16.83
2022-08-17T23:11:00.383Z,14.43
2022-08-17T23:13:27.637Z,17.25
2022-08-17T23:15:54.098Z,17.98
2022-08-17T23:18:20.538Z,17.67
2022-08-17T23:20:46.981Z,18.48
2022-08-17T23:23:14.212Z,18.77
2022-08-17T23:25:44.465Z,17.50
2022-08-17T23:28:11.313Z,19.33
2022-08-17T23:30:42.768Z,18.60
2022-08-17T23:33:19.796Z,17.95
2022-08-17T23:35:46.235Z,24.20
2022-08-17T23:38:13.749Z,23.00
2022-08-17T23:40:40.873Z,20.13
2022-08-17T23:43:24.604Z,16.45
2022-08-17T23:45:53.921Z,20.17
2022-08-17T23:48:30.334Z,14.13
2022-08-17T23:51:05.744Z,16.10
2022-08-17T23:53:34.402Z,19.77
2022-08-17T23:56:01.580Z,18.02
2022-08-17T23:58:38.368Z,15.15
